Time;durP1;ratioP1;P1;durP2;ratioP2;P2;SDS_P1;SDS_P2;PMS_P1;PMS_P2;Temp;Humidity;BMP_temperature;BMP_pressure;BME280_temperature;BME280_humidity;BME280_pressure;Samples;Min_cycle;Max_cycle;Signal;HPM_P1;HPM_P2
2023/09/24 00:01:13;;;;;;;9.43;3.97;;;11.30;99.90;;;;;;5091304;28;20077;-53
2023/09/24 00:03:39;;;;;;;7.93;3.37;;;11.40;99.90;;;;;;5091681;28;20054;-53
2023/09/24 00:06:07;;;;;;;6.50;3.70;;;11.40;99.90;;;;;;5091548;28;20411;-52
2023/09/24 00:08:33;;;;;;;7.20;3.60;;;11.40;99.90;;;;;;5091440;28;20039;-53
2023/09/24 00:10:59;;;;;;;7.50;3.85;;;11.40;99.90;;;;;;5091113;28;20477;-50
2023/09/24 00:13:25;;;;;;;7.07;3.70;;;11.30;99.90;;;;;;5092638;28;20035;-50
2023/09/24 00:15:51;;;;;;;7.30;3.30;;;11.30;99.90;;;;;;5091401;28;20036;-52
2023/09/24 00:18:19;;;;;;;6.00;2.90;;;11.20;99.90;;;;;;5091273;28;20067;-51
2023/09/24 00:20:46;;;;;;;7.38;3.15;;;11.20;99.90;;;;;;5091291;28;20465;-51
2023/09/24 00:23:11;;;;;;;7.17;3.40;;;11.10;99.90;;;;;;5091271;28;20040;-49
2023/09/24 00:25:37;;;;;;;7.70;2.97;;;11.10;99.90;;;;;;5091198;28;20456;-51
2023/09/24 00:28:04;;;;;;;10.73;3.30;;;11.20;99.90;;;;;;5091217;28;20035;-50
2023/09/24 00:30:33;;;;;;;6.10;2.97;;;11.10;99.90;;;;;;5072777;28;20036;-50
2023/09/24 00:32:59;;;;;;;6.47;2.83;;;11.10;99.90;;;;;;5073002;28;20084;-51
2023/09/24 00:35:25;;;;;;;7.73;3.43;;;11.00;99.90;;;;;;5073278;28;20043;-54
2023/09/24 00:37:50;;;;;;;6.13;3.03;;;11.00;99.90;;;;;;5073153;28;20024;-52
2023/09/24 00:40:18;;;;;;;6.50;3.20;;;11.00;99.90;;;;;;5072864;28;20032;-53
2023/09/24 00:42:44;;;;;;;6.77;3.10;;;10.90;99.90;;;;;;5091337;28;20028;-53
2023/09/24 00:45:11;;;;;;;9.10;3.37;;;10.90;99.90;;;;;;5072881;28;20028;-53
2023/09/24 00:47:41;;;;;;;6.77;2.80;;;10.90;99.90;;;;;;5072863;28;20024;-53
2023/09/24 00:50:08;;;;;;;8.00;3.33;;;10.80;99.90;;;;;;5090677;28;20036;-53
2023/09/24 00:52:34;;;;;;;5.27;3.00;;;10.80;99.90;;;;;;5072798;28;20107;-52
2023/09/24 00:55:03;;;;;;;5.27;2.70;;;10.80;99.90;;;;;;5072745;28;20020;-53
2023/09/24 00:57:29;;;;;;;6.75;3.15;;;10.80;99.90;;;;;;5072799;28;20024;-54
2023/09/24 00:59:55;;;;;;;6.20;2.93;;;10.90;99.90;;;;;;5072292;28;20115;-52
2023/09/24 01:02:21;;;;;;;7.63;3.70;;;10.90;99.90;;;;;;5072907;28;20055;-51
2023/09/24 01:04:49;;;;;;;7.53;3.50;;;10.90;99.90;;;;;;5092388;28;20032;-53
2023/09/24 01:07:14;;;;;;;9.63;3.03;;;10.90;99.90;;;;;;5076752;28;20046;-53
2023/09/24 01:09:42;;;;;;;6.27;3.17;;;10.80;99.90;;;;;;5076256;28;20040;-52
2023/09/24 01:12:22;;;;;;;7.57;3.40;;;10.70;99.90;;;;;;5076814;28;20098;-53
2023/09/24 01:14:53;;;;;;;5.70;3.00;;;10.70;99.90;;;;;;5094659;28;20028;-52
2023/09/24 01:17:23;;;;;;;7.33;3.00;;;10.60;99.90;;;;;;5095133;28;20024;-53
2023/09/24 01:19:51;;;;;;;6.60;2.80;;;10.60;99.90;;;;;;5076001;28;20028;-53
2023/09/24 01:22:17;;;;;;;4.67;3.03;;;10.60;99.90;;;;;;5094682;28;20460;-49
2023/09/24 01:24:42;;;;;;;7.67;3.13;;;10.60;99.90;;;;;;5076281;28;20043;-49
2023/09/24 01:27:08;;;;;;;11.87;3.23;;;10.60;99.90;;;;;;5076763;28;20277;-54
2023/09/24 01:29:36;;;;;;;6.73;3.27;;;10.60;99.90;;;;;;5094077;28;20397;-53
2023/09/24 01:32:06;;;;;;;7.53;3.10;;;10.60;99.90;;;;;;5094331;28;20028;-51
2023/09/24 01:34:32;;;;;;;;;;;10.60;99.90;;;;;;5076758;28;20506;-53
2023/09/24 01:36:58;;;;;;;11.40;3.20;;;10.60;99.90;;;;;;5076135;28;19908;-53
2023/09/24 01:39:27;;;;;;;8.23;3.40;;;10.60;99.90;;;;;;5094158;28;20028;-53
2023/09/24 01:41:53;;;;;;;7.93;3.83;;;10.60;99.90;;;;;;5076114;28;20032;-53
2023/09/24 01:44:21;;;;;;;8.67;3.30;;;10.60;99.90;;;;;;5076025;28;20043;-53
2023/09/24 01:46:47;;;;;;;7.13;2.90;;;10.60;99.90;;;;;;5075796;28;20047;-53
2023/09/24 01:49:13;;;;;;;8.13;3.20;;;10.60;99.90;;;;;;5075655;28;20031;-53
2023/09/24 01:51:39;;;;;;;7.27;3.27;;;10.60;99.90;;;;;;5075846;28;20039;-53
2023/09/24 01:54:05;;;;;;;5.50;2.83;;;10.70;99.90;;;;;;5075695;28;20392;-54
2023/09/24 01:56:31;;;;;;;7.93;3.33;;;10.70;99.90;;;;;;5075721;28;20028;-53
2023/09/24 01:58:56;;;;;;;6.67;3.30;;;10.80;99.90;;;;;;5075447;28;20024;-50
2023/09/24 02:01:22;;;;;;;7.17;3.47;;;10.80;99.90;;;;;;5075500;28;20051;-51
2023/09/24 02:03:48;;;;;;;8.57;3.83;;;10.70;99.90;;;;;;5075611;28;20446;-53
2023/09/24 02:06:15;;;;;;;8.90;4.13;;;10.60;99.90;;;;;;5093839;28;20028;-54
2023/09/24 02:08:40;;;;;;;10.63;4.03;;;10.70;99.90;;;;;;5075409;28;20488;-53
2023/09/24 02:11:06;;;;;;;7.30;3.60;;;10.70;99.90;;;;;;5075304;28;20043;-54
2023/09/24 02:13:32;;;;;;;8.33;3.80;;;10.70;99.90;;;;;;5093597;28;20427;-53
2023/09/24 02:16:01;;;;;;;6.87;3.30;;;10.80;99.90;;;;;;5093113;28;20055;-50
2023/09/24 02:18:32;;;;;;;6.70;3.33;;;10.80;99.90;;;;;;5075130;28;20099;-53
2023/09/24 02:20:59;;;;;;;7.93;3.13;;;10.80;99.90;;;;;;5075431;28;20032;-53
2023/09/24 02:23:26;;;;;;;7.03;3.10;;;10.80;99.90;;;;;;5075171;28;20085;-52
2023/09/24 02:25:52;;;;;;;6.80;3.50;;;10.80;99.90;;;;;;5093852;28;20107;-53
2023/09/24 02:28:18;;;;;;;6.53;3.40;;;10.80;99.90;;;;;;5074922;28;20123;-50
2023/09/24 02:30:45;;;;;;;8.20;3.83;;;10.80;99.90;;;;;;5093157;28;20031;-53
2023/09/24 02:33:11;;;;;;;5.70;3.07;;;10.80;99.90;;;;;;5074962;28;20032;-50
2023/09/24 02:35:36;;;;;;;5.43;2.83;;;10.70;99.90;;;;;;5093346;28;20028;-50
2023/09/24 02:38:07;;;;;;;10.10;3.37;;;10.70;99.90;;;;;;5075002;28;20031;-52
2023/09/24 02:40:33;;;;;;;6.50;3.27;;;10.70;99.90;;;;;;5074711;28;20031;-52
2023/09/24 02:43:00;;;;;;;5.87;2.83;;;10.70;99.90;;;;;;5058207;28;20030;-50
2023/09/24 02:45:31;;;;;;;10.10;3.50;;;10.70;99.90;;;;;;5074866;28;20032;-52
2023/09/24 02:47:57;;;;;;;7.63;3.17;;;10.70;99.90;;;;;;5074677;28;20115;-53
2023/09/24 02:50:24;;;;;;;8.23;3.70;;;10.60;99.90;;;;;;5092618;28;20123;-53
2023/09/24 02:53:02;;;;;;;5.40;2.77;;;10.60;99.90;;;;;;5074816;28;20036;-53
2023/09/24 02:55:29;;;;;;;7.17;3.73;;;10.60;99.90;;;;;;5074559;28;20031;-53
2023/09/24 02:57:56;;;;;;;6.40;3.67;;;10.60;99.90;;;;;;5092814;28;20042;-51
2023/09/24 03:00:30;;;;;;;7.83;3.27;;;10.50;99.90;;;;;;5074282;28;20020;-53
2023/09/24 03:02:58;;;;;;;9.10;3.43;;;10.50;99.90;;;;;;5074485;28;20032;-53
2023/09/24 03:05:24;;;;;;;6.47;3.37;;;10.60;99.90;;;;;;5074525;28;20039;-53
2023/09/24 03:07:54;;;;;;;7.13;3.03;;;10.50;99.90;;;;;;5074285;28;20476;-51
2023/09/24 03:10:21;;;;;;;7.27;3.43;;;10.50;99.90;;;;;;5073920;28;20752;-51
2023/09/24 03:12:48;;;;;;;5.83;3.40;;;10.50;99.90;;;;;;5074205;28;20027;-52
2023/09/24 03:15:14;;;;;;;6.33;3.17;;;10.50;99.90;;;;;;5092471;28;20024;-50
2023/09/24 03:17:42;;;;;;;9.93;3.20;;;10.40;99.90;;;;;;5074112;28;20024;-50
2023/09/24 03:20:15;;;;;;;6.90;3.27;;;10.40;99.90;;;;;;5091978;28;20030;-52
2023/09/24 03:22:48;;;;;;;7.73;3.60;;;10.40;99.90;;;;;;5074085;28;20518;-51
2023/09/24 03:25:18;;;;;;;6.17;3.20;;;10.40;99.90;;;;;;5074163;28;20115;-51
2023/09/24 03:27:49;;;;;;;6.97;3.50;;;10.40;99.90;;;;;;5073087;28;20127;-53
2023/09/24 03:30:17;;;;;;;10.17;3.30;;;10.40;99.90;;;;;;5073778;28;20115;-54
2023/09/24 03:32:47;;;;;;;7.37;3.30;;;10.40;99.90;;;;;;5073928;28;20024;-52
2023/09/24 03:35:14;;;;;;;8.80;3.63;;;10.50;99.90;;;;;;5073787;28;20420;-53
2023/09/24 03:37:44;;;;;;;5.57;3.13;;;10.50;99.90;;;;;;5073871;28;20061;-53
2023/09/24 03:40:12;;;;;;;8.27;3.10;;;10.40;99.90;;;;;;5073585;28;20294;-53
2023/09/24 03:42:38;;;;;;;11.00;3.30;;;10.50;99.90;;;;;;5091983;28;20020;-52
2023/09/24 03:45:12;;;;;;;9.77;3.10;;;10.50;99.90;;;;;;5091900;28;20051;-54
2023/09/24 03:47:38;;;;;;;5.57;2.93;;;10.40;99.90;;;;;;5073370;28;20032;-53
2023/09/24 03:50:06;;;;;;;7.30;3.30;;;10.40;99.90;;;;;;5073133;28;20663;-53
2023/09/24 03:52:32;;;;;;;10.00;3.67;;;10.30;99.90;;;;;;5091805;28;20024;-53
2023/09/24 03:55:01;;;;;;;7.63;3.13;;;10.40;99.90;;;;;;5073484;28;20032;-53
2023/09/24 03:57:30;;;;;;;8.60;3.55;;;10.40;99.90;;;;;;5073355;28;20032;-49
2023/09/24 03:59:56;;;;;;;6.72;3.13;;;10.40;99.90;;;;;;5091245;28;20499;-52
2023/09/24 04:02:23;;;;;;;6.57;3.27;;;10.40;99.90;;;;;;5073471;28;20080;-52
2023/09/24 04:04:49;;;;;;;7.10;3.13;;;10.30;99.90;;;;;;5091493;28;20030;-53
2023/09/24 04:07:15;;;;;;;7.20;3.93;;;10.30;99.90;;;;;;5073211;28;20032;-53
2023/09/24 04:09:43;;;;;;;5.33;2.57;;;10.40;99.90;;;;;;5073031;28;20028;-48
2023/09/24 04:12:09;;;;;;;8.50;3.60;;;10.30;99.90;;;;;;5091265;28;20058;-49
2023/09/24 04:14:35;;;;;;;7.60;2.70;;;10.20;99.90;;;;;;5091392;28;20036;-53
2023/09/24 04:17:02;;;;;;;6.17;2.97;;;10.20;99.90;;;;;;5091469;28;20050;-52
2023/09/24 04:19:29;;;;;;;5.77;3.07;;;10.20;99.90;;;;;;5090857;28;20042;-52
2023/09/24 04:21:55;;;;;;;7.57;3.03;;;10.30;99.90;;;;;;5091246;28;20119;-53
2023/09/24 04:24:21;;;;;;;4.80;2.80;;;10.30;99.90;;;;;;5073036;28;20199;-52
2023/09/24 04:26:47;;;;;;;7.90;3.50;;;10.30;99.90;;;;;;5091311;28;20799;-52
2023/09/24 04:29:14;;;;;;;8.63;3.20;;;10.30;99.90;;;;;;5090794;28;20039;-53
2023/09/24 04:31:39;;;;;;;8.80;3.57;;;10.20;99.90;;;;;;5091014;28;20541;-51
2023/09/24 04:34:05;;;;;;;8.47;3.03;;;10.30;99.90;;;;;;5091075;28;20031;-53
2023/09/24 04:36:31;;;;;;;6.20;3.70;;;10.20;99.90;;;;;;5091186;28;20016;-53
2023/09/24 04:38:56;;;;;;;7.47;3.93;;;10.20;99.90;;;;;;5090826;28;20102;-48
2023/09/24 04:41:22;;;;;;;6.47;3.40;;;10.20;99.90;;;;;;5090718;28;20024;-49
2023/09/24 04:43:48;;;;;;;6.60;3.10;;;10.10;99.90;;;;;;5090837;28;20082;-49
2023/09/24 04:46:14;;;;;;;9.97;3.67;;;10.20;99.90;;;;;;5091064;28;20039;-50
2023/09/24 04:48:39;;;;;;;7.50;2.83;;;10.20;99.90;;;;;;5090870;28;20392;-48
2023/09/24 04:51:05;;;;;;;7.53;3.23;;;10.20;99.90;;;;;;5090927;28;20032;-50
2023/09/24 04:53:31;;;;;;;9.27;3.60;;;10.20;99.90;;;;;;5091101;28;20031;-51
2023/09/24 04:55:57;;;;;;;6.10;3.27;;;10.10;99.90;;;;;;5091164;28;20020;-49
2023/09/24 04:58:23;;;;;;;8.13;3.80;;;10.10;99.90;;;;;;5090720;28;20073;-50
2023/09/24 05:00:49;;;;;;;10.07;3.50;;;10.00;99.90;;;;;;5090604;28;20028;-50
2023/09/24 05:03:16;;;;;;;8.13;3.60;;;10.00;99.90;;;;;;5072740;28;20043;-49
2023/09/24 05:05:42;;;;;;;8.10;3.53;;;10.00;99.90;;;;;;5090725;28;20032;-52
2023/09/24 05:08:09;;;;;;;7.57;2.90;;;10.00;99.90;;;;;;5090977;28;20483;-53
2023/09/24 05:10:36;;;;;;;8.63;3.47;;;10.00;99.90;;;;;;5090352;28;20047;-53
2023/09/24 05:13:05;;;;;;;6.03;3.40;;;10.00;99.90;;;;;;5090408;28;20047;-50
2023/09/24 05:15:30;;;;;;;6.80;3.38;;;10.00;99.90;;;;;;5090896;28;20035;-53
2023/09/24 05:17:56;;;;;;;6.50;3.27;;;10.00;99.90;;;;;;5090565;28;20024;-53
2023/09/24 05:20:22;;;;;;;6.20;2.80;;;10.00;99.90;;;;;;5090241;28;20085;-51
2023/09/24 05:22:48;;;;;;;7.63;3.17;;;10.00;99.90;;;;;;5072427;28;20032;-52
2023/09/24 05:25:14;;;;;;;7.47;3.03;;;10.00;99.90;;;;;;5090569;28;20039;-53
2023/09/24 05:27:39;;;;;;;6.77;2.90;;;10.00;99.90;;;;;;5090324;28;20032;-54
2023/09/24 05:30:07;;;;;;;10.63;3.30;;;10.00;99.90;;;;;;5090104;28;20057;-53
2023/09/24 05:32:34;;;;;;;6.43;3.03;;;10.00;99.90;;;;;;5090611;28;20036;-53
2023/09/24 05:34:59;;;;;;;8.73;2.77;;;10.00;99.90;;;;;;5090363;28;20047;-53
2023/09/24 05:37:25;;;;;;;5.20;2.53;;;10.00;99.90;;;;;;5090188;28;20480;-52
2023/09/24 05:39:51;;;;;;;6.47;2.90;;;10.00;99.90;;;;;;5089946;28;20069;-53
2023/09/24 05:42:17;;;;;;;6.37;3.00;;;10.00;99.90;;;;;;5090223;28;20029;-53
2023/09/24 05:44:43;;;;;;;6.40;2.67;;;10.00;99.90;;;;;;5090315;28;20028;-53
2023/09/24 05:47:10;;;;;;;5.77;2.90;;;10.00;99.90;;;;;;5090696;28;20144;-48
2023/09/24 05:49:36;;;;;;;6.03;3.40;;;10.00;99.90;;;;;;5090112;28;20039;-49
2023/09/24 05:52:02;;;;;;;8.17;3.10;;;10.00;99.90;;;;;;5094077;28;20024;-48
2023/09/24 05:54:28;;;;;;;5.57;2.97;;;10.00;99.90;;;;;;5075615;28;20031;-48
2023/09/24 05:56:54;;;;;;;6.23;2.87;;;9.90;99.90;;;;;;5094049;28;20030;-49
2023/09/24 05:59:20;;;;;;;5.93;2.40;;;10.00;99.90;;;;;;5093784;28;20054;-49
2023/09/24 06:01:46;;;;;;;6.40;3.00;;;10.00;99.90;;;;;;5093648;28;20061;-54
2023/09/24 06:04:11;;;;;;;9.07;3.10;;;10.00;99.90;;;;;;5094016;28;20028;-49
2023/09/24 06:06:37;;;;;;;5.00;2.57;;;10.00;99.90;;;;;;5093858;28;20028;-49
2023/09/24 06:09:09;;;;;;;7.60;2.93;;;10.00;99.90;;;;;;5093494;28;20124;-52
2023/09/24 06:11:37;;;;;;;6.40;3.37;;;10.10;99.90;;;;;;5093606;28;20035;-53
2023/09/24 06:14:08;;;;;;;9.30;2.80;;;10.10;99.90;;;;;;5093644;28;20503;-50
2023/09/24 06:16:35;;;;;;;6.37;2.23;;;10.10;99.90;;;;;;5094889;28;20936;-49
2023/09/24 06:19:00;;;;;;;6.33;2.90;;;10.10;99.90;;;;;;5094617;28;20434;-49
2023/09/24 06:21:26;;;;;;;6.07;3.10;;;10.20;99.90;;;;;;5094550;28;20028;-51
2023/09/24 06:23:51;;;;;;;6.23;2.70;;;10.20;99.90;;;;;;5093264;28;20499;-52
2023/09/24 06:26:19;;;;;;;8.40;2.60;;;10.30;99.90;;;;;;5093520;28;20028;-52
2023/09/24 06:28:44;;;;;;;5.03;2.70;;;10.30;99.90;;;;;;5093194;28;20311;-52
2023/09/24 06:31:10;;;;;;;6.07;2.80;;;10.40;99.90;;;;;;5093420;28;20420;-50
2023/09/24 06:33:36;;;;;;;4.97;2.23;;;10.40;99.90;;;;;;5093277;28;20388;-52
2023/09/24 06:36:03;;;;;;;5.57;2.40;;;10.50;99.90;;;;;;5093407;28;20040;-52
2023/09/24 06:38:30;;;;;;;6.20;2.20;;;10.50;99.90;;;;;;5092681;28;20051;-51
2023/09/24 06:40:59;;;;;;;4.40;2.60;;;10.60;99.90;;;;;;5093004;28;20031;-53
2023/09/24 06:43:25;;;;;;;7.63;2.27;;;10.60;99.90;;;;;;5093139;28;20036;-53
2023/09/24 06:45:53;;;;;;;6.30;2.50;;;10.70;99.90;;;;;;5093147;28;20032;-53
2023/09/24 06:48:19;;;;;;;6.07;2.40;;;10.80;99.90;;;;;;5092844;28;20395;-53
2023/09/24 06:50:45;;;;;;;5.40;2.20;;;10.80;99.90;;;;;;5092590;28;20608;-53
2023/09/24 06:53:10;;;;;;;4.53;2.50;;;10.90;99.90;;;;;;5092814;28;20039;-52
2023/09/24 06:55:39;;;;;;;4.87;2.23;;;10.90;99.90;;;;;;5092883;28;20024;-53
2023/09/24 06:58:04;;;;;;;10.25;2.47;;;11.10;99.90;;;;;;5092987;28;20036;-51
2023/09/24 07:00:30;;;;;;;5.53;2.30;;;11.10;99.90;;;;;;5093084;28;20117;-53
2023/09/24 07:02:56;;;;;;;5.40;2.10;;;11.20;99.90;;;;;;5092080;28;20050;-50
2023/09/24 07:05:21;;;;;;;5.43;2.17;;;11.30;99.90;;;;;;5092696;28;20098;-53
2023/09/24 07:07:47;;;;;;;5.17;2.50;;;11.40;99.90;;;;;;5092641;28;20020;-53
2023/09/24 07:10:13;;;;;;;4.97;2.07;;;11.60;99.90;;;;;;5092298;28;20393;-53
2023/09/24 07:12:39;;;;;;;4.00;1.90;;;11.70;99.90;;;;;;5092737;28;20032;-53
2023/09/24 07:15:06;;;;;;;3.97;1.67;;;11.70;99.90;;;;;;5092514;28;20469;-50
2023/09/24 07:17:31;;;;;;;6.63;2.43;;;11.80;99.90;;;;;;5092872;28;20060;-52
2023/09/24 07:19:57;;;;;;;3.73;1.83;;;11.90;99.90;;;;;;5092132;28;20145;-51
2023/09/24 07:22:26;;;;;;;3.57;1.87;;;12.00;99.90;;;;;;5092240;28;20036;-53
2023/09/24 07:24:53;;;;;;;5.50;1.75;;;12.10;99.90;;;;;;5092561;28;20131;-53
2023/09/24 07:27:19;;;;;;;4.70;2.00;;;12.10;99.90;;;;;;5092303;28;20036;-50
2023/09/24 07:29:45;;;;;;;3.80;1.50;;;12.30;99.90;;;;;;5091799;28;20051;-51
2023/09/24 07:32:11;;;;;;;2.70;1.40;;;12.30;99.90;;;;;;5092220;28;20040;-52
2023/09/24 07:34:37;;;;;;;2.97;1.58;;;12.40;99.90;;;;;;5091931;28;20035;-54
2023/09/24 07:37:04;;;;;;;3.30;1.40;;;12.60;99.90;;;;;;5074192;28;20387;-52
2023/09/24 07:39:30;;;;;;;4.63;1.50;;;12.60;99.90;;;;;;5091511;28;20036;-50
2023/09/24 07:41:56;;;;;;;2.83;1.50;;;12.70;99.90;;;;;;5092013;28;20024;-53
2023/09/24 07:44:22;;;;;;;2.25;1.20;;;12.80;99.90;;;;;;5091866;28;20416;-53
2023/09/24 07:46:48;;;;;;;4.30;1.50;;;12.90;99.90;;;;;;5091905;28;20396;-52
2023/09/24 07:49:14;;;;;;;4.35;1.40;;;13.00;99.90;;;;;;5073306;28;20043;-53
2023/09/24 07:51:41;;;;;;;4.05;1.60;;;13.10;99.90;;;;;;5091663;28;20434;-54
2023/09/24 07:54:08;;;;;;;7.10;1.70;;;13.20;99.90;;;;;;5091650;28;20081;-51
2023/09/24 07:56:34;;;;;;;5.30;1.90;;;13.30;99.90;;;;;;5091697;28;20038;-52
2023/09/24 07:59:02;;;;;;;8.00;3.05;;;13.40;99.90;;;;;;5091399;28;20028;-54
2023/09/24 08:01:28;;;;;;;4.47;2.07;;;13.60;99.90;;;;;;5091507;28;20535;-51
2023/09/24 08:03:53;;;;;;;5.55;2.55;;;13.70;99.90;;;;;;5091446;28;20028;-53
2023/09/24 08:06:19;;;;;;;4.45;1.85;;;13.80;99.90;;;;;;5091431;28;20043;-54
2023/09/24 08:08:44;;;;;;;9.68;4.00;;;13.80;99.90;;;;;;5091268;28;20047;-54
2023/09/24 08:11:10;;;;;;;1.90;1.17;;;13.90;99.90;;;;;;5091211;28;20028;-54
2023/09/24 08:13:36;;;;;;;2.67;1.30;;;14.10;99.90;;;;;;5090973;28;20044;-54
2023/09/24 08:16:01;;;;;;;4.50;1.40;;;14.10;99.90;;;;;;5091631;28;20368;-54
2023/09/24 08:18:27;;;;;;;2.50;1.05;;;14.20;99.90;;;;;;5091031;28;20027;-54
2023/09/24 08:20:53;;;;;;;2.55;1.10;;;14.20;99.90;;;;;;5091143;28;20054;-52
2023/09/24 08:23:20;;;;;;;3.78;1.10;;;14.30;99.90;;;;;;5091139;28;20036;-53
2023/09/24 08:25:45;;;;;;;3.20;1.42;;;14.40;99.90;;;;;;5091046;28;20036;-52
2023/09/24 08:28:13;;;;;;;3.47;0.93;;;14.50;99.90;;;;;;5090996;28;20031;-52
2023/09/24 08:30:39;;;;;;;2.30;1.10;;;14.50;99.90;;;;;;5090734;28;20039;-52
2023/09/24 08:33:07;;;;;;;1.50;0.90;;;14.70;99.90;;;;;;5090968;28;20044;-50
2023/09/24 08:35:34;;;;;;;5.00;1.15;;;14.80;99.90;;;;;;5091234;28;20095;-49
2023/09/24 08:38:00;;;;;;;8.00;1.33;;;14.90;99.90;;;;;;5091100;28;20032;-52
2023/09/24 08:40:32;;;;;;;3.17;1.05;;;15.00;99.90;;;;;;5090643;28;20391;-51
2023/09/24 08:42:58;;;;;;;3.72;1.08;;;15.10;99.90;;;;;;5072846;28;20059;-51
2023/09/24 08:45:28;;;;;;;5.47;1.30;;;15.30;99.90;;;;;;5090801;28;20036;-54
2023/09/24 08:47:54;;;;;;;3.15;1.08;;;15.40;99.90;;;;;;5090987;28;20098;-53
2023/09/24 08:50:21;;;;;;;2.08;0.80;;;15.50;99.90;;;;;;5090722;28;20111;-50
2023/09/24 08:52:47;;;;;;;3.40;0.90;;;15.60;99.90;;;;;;5090783;28;20110;-50
2023/09/24 08:55:14;;;;;;;4.43;1.45;;;15.70;99.90;;;;;;5090868;28;20032;-52
2023/09/24 08:57:42;;;;;;;2.85;1.23;;;15.70;99.90;;;;;;5090703;28;20404;-52
2023/09/24 09:00:11;;;;;;;5.22;1.17;;;15.80;99.90;;;;;;5090365;28;20077;-53
2023/09/24 09:02:43;;;;;;;3.63;0.90;;;15.90;99.90;;;;;;5090724;28;20024;-51
2023/09/24 09:05:21;;;;;;;2.05;0.93;;;15.90;99.90;;;;;;5090662;28;20040;-52
2023/09/24 09:07:58;;;;;;;2.00;0.93;;;15.90;99.90;;;;;;5090591;28;20573;-53
2023/09/24 09:10:32;;;;;;;3.05;1.23;;;16.00;99.90;;;;;;5090403;28;20089;-53
2023/09/24 09:13:15;;;;;;;2.42;1.02;;;16.20;99.90;;;;;;5090808;28;20416;-54
2023/09/24 09:15:42;;;;;;;1.88;0.73;;;16.20;99.90;;;;;;5090938;28;20053;-54
2023/09/24 09:18:25;;;;;;;1.25;0.73;;;16.40;99.90;;;;;;5091245;28;20113;-50
2023/09/24 09:20:58;;;;;;;4.07;2.17;;;16.60;99.90;;;;;;5090490;28;20024;-52
2023/09/24 09:23:44;;;;;;;3.97;1.20;;;16.70;99.90;;;;;;5072451;28;20118;-53
2023/09/24 09:26:10;;;;;;;6.85;2.53;;;17.00;99.90;;;;;;5093039;28;20107;-50
2023/09/24 09:28:36;;;;;;;4.22;1.65;;;17.30;99.90;;;;;;5094410;28;20476;-51
2023/09/24 09:31:02;;;;;;;6.18;1.70;;;17.50;99.90;;;;;;5094454;28;20153;-54
2023/09/24 09:33:29;;;;;;;5.85;3.03;;;17.70;99.90;;;;;;5094378;28;20529;-54
2023/09/24 09:35:57;;;;;;;2.78;1.35;;;17.70;99.90;;;;;;5094506;28;20066;-53
2023/09/24 09:38:24;;;;;;;2.90;0.73;;;17.90;99.90;;;;;;5094475;28;20036;-50
2023/09/24 09:40:59;;;;;;;3.80;1.00;;;18.10;99.90;;;;;;5093985;28;20031;-53
2023/09/24 09:43:27;;;;;;;1.73;0.93;;;18.20;99.90;;;;;;5094723;28;20389;-50
2023/09/24 09:45:54;;;;;;;1.77;0.80;;;18.20;99.90;;;;;;5094159;28;20040;-50
2023/09/24 09:48:33;;;;;;;4.30;1.70;;;18.40;99.90;;;;;;5094108;28;20024;-52
2023/09/24 09:51:07;;;;;;;6.45;1.98;;;18.40;99.90;;;;;;5094087;28;20042;-55
2023/09/24 09:53:34;;;;;;;2.60;0.90;;;18.60;99.90;;;;;;5093950;28;20047;-54
2023/09/24 09:56:06;;;;;;;4.03;1.02;;;18.70;99.90;;;;;;5093990;28;20028;-54
2023/09/24 09:58:34;;;;;;;2.60;0.93;;;19.00;99.90;;;;;;5093592;28;20059;-53
2023/09/24 10:01:00;;;;;;;2.83;0.80;;;19.10;99.90;;;;;;5093720;28;20102;-55
2023/09/24 10:03:28;;;;;;;2.72;1.08;;;19.30;99.90;;;;;;5093839;28;20039;-53
2023/09/24 10:05:55;;;;;;;3.13;0.80;;;19.20;99.90;;;;;;5075596;28;20032;-54
2023/09/24 10:08:45;;;;;;;2.95;0.88;;;19.40;99.90;;;;;;5093683;28;20067;-54
2023/09/24 10:11:31;;;;;;;2.95;0.77;;;19.60;99.90;;;;;;5093659;28;20027;-52
2023/09/24 10:13:58;;;;;;;2.28;0.90;;;19.80;99.90;;;;;;5093497;28;20032;-54
2023/09/24 10:16:35;;;;;;;3.90;0.80;;;19.90;99.90;;;;;;5093819;28;20047;-50
2023/09/24 10:19:02;;;;;;;4.05;1.27;;;20.40;99.90;;;;;;5093458;28;20032;-50
2023/09/24 10:21:31;;;;;;;8.05;2.97;;;20.80;99.90;;;;;;5093295;28;20024;-54
2023/09/24 10:24:11;;;;;;;2.30;0.90;;;21.20;99.90;;;;;;5093373;28;20040;-54
2023/09/24 10:27:06;;;;;;;1.45;0.68;;;21.30;99.60;;;;;;5093534;28;20043;-53
2023/09/24 10:29:50;;;;;;;2.83;0.75;;;22.00;98.30;;;;;;5093048;28;20511;-53
2023/09/24 10:32:17;;;;;;;1.85;0.70;;;23.10;96.40;;;;;;5093315;28;20044;-50
2023/09/24 10:34:53;;;;;;;2.08;0.73;;;24.30;95.30;;;;;;5093442;28;20032;-47
2023/09/24 10:37:24;;;;;;;3.35;1.00;;;25.20;93.40;;;;;;5092906;28;20035;-50
2023/09/24 10:40:04;;;;;;;1.58;0.80;;;25.70;91.10;;;;;;5092808;28;20043;-51
2023/09/24 10:42:31;;;;;;;2.40;0.90;;;26.20;90.00;;;;;;5093529;28;20089;-55
2023/09/24 10:45:05;;;;;;;2.65;0.75;;;25.70;87.60;;;;;;5093375;28;20085;-52
2023/09/24 10:47:34;;;;;;;2.15;0.90;;;25.40;88.70;;;;;;5093022;28;20036;-50
2023/09/24 10:50:13;;;;;;;1.70;0.77;;;24.80;90.00;;;;;;5092639;28;20036;-51
2023/09/24 10:52:59;;;;;;;2.67;1.00;;;24.00;90.50;;;;;;5093265;28;20376;-53
2023/09/24 10:55:30;;;;;;;2.65;0.70;;;23.20;91.10;;;;;;5093136;28;20040;-54
2023/09/24 10:57:57;;;;;;;1.88;0.95;;;22.70;92.40;;;;;;5092855;28;20044;-53
2023/09/24 11:00:27;;;;;;;2.28;0.82;;;22.20;93.60;;;;;;5092534;28;20028;-53
2023/09/24 11:02:54;;;;;;;2.63;0.68;;;21.60;94.20;;;;;;5092700;28;20040;-52
2023/09/24 11:05:20;;;;;;;1.83;0.70;;;21.40;96.50;;;;;;5092687;28;20046;-54
2023/09/24 11:07:46;;;;;;;2.03;0.63;;;21.20;93.60;;;;;;5092481;28;20036;-54
2023/09/24 11:10:16;;;;;;;0.80;0.43;;;20.80;94.20;;;;;;5092580;28;20030;-54
2023/09/24 11:12:50;;;;;;;1.48;0.82;;;20.60;94.50;;;;;;5092550;28;20439;-54
2023/09/24 11:15:18;;;;;;;1.88;0.80;;;20.40;95.60;;;;;;5093649;28;20040;-53
2023/09/24 11:17:47;;;;;;;3.10;0.52;;;20.30;95.10;;;;;;5092156;28;20047;-54
2023/09/24 11:20:17;;;;;;;4.43;1.58;;;20.10;95.30;;;;;;5092042;28;20032;-53
2023/09/24 11:22:43;;;;;;;2.92;1.00;;;20.00;96.60;;;;;;5092136;28;20047;-52
2023/09/24 11:25:14;;;;;;;1.67;0.70;;;20.00;96.90;;;;;;5092420;28;20417;-53
2023/09/24 11:27:50;;;;;;;2.88;0.70;;;20.20;96.20;;;;;;5092400;28;20028;-53
2023/09/24 11:30:17;;;;;;;3.50;1.58;;;20.30;96.20;;;;;;5091948;28;20032;-52
2023/09/24 11:32:45;;;;;;;4.65;1.73;;;20.30;96.30;;;;;;5074113;28;20028;-55
2023/09/24 11:35:12;;;;;;;3.55;0.90;;;20.50;96.70;;;;;;5092026;28;20040;-52
2023/09/24 11:37:59;;;;;;;2.83;0.70;;;20.70;95.10;;;;;;5092109;28;20028;-51
2023/09/24 11:40:31;;;;;;;1.35;0.55;;;20.70;95.70;;;;;;5091584;28;20023;-50
2023/09/24 11:43:03;;;;;;;2.47;0.80;;;20.80;94.70;;;;;;5091864;28;20123;-54
2023/09/24 11:45:42;;;;;;;3.28;0.90;;;20.50;94.40;;;;;;5091822;28;20046;-53
2023/09/24 11:48:13;;;;;;;1.30;0.70;;;20.60;96.80;;;;;;5091276;28;20032;-54
2023/09/24 11:50:44;;;;;;;1.70;0.82;;;20.80;96.10;;;;;;5091512;28;20020;-50
2023/09/24 11:53:10;;;;;;;2.97;0.63;;;21.10;97.00;;;;;;5091754;28;20078;-54
2023/09/24 11:55:36;;;;;;;3.67;1.30;;;21.30;96.50;;;;;;5091747;28;20024;-53
2023/09/24 11:58:04;;;;;;;3.05;0.98;;;21.40;95.10;;;;;;5091683;28;20054;-50
2023/09/24 12:00:29;;;;;;;2.58;0.60;;;21.50;94.10;;;;;;5091385;28;20077;-51
2023/09/24 12:02:55;;;;;;;4.25;0.75;;;21.10;94.40;;;;;;5091606;28;20397;-49
2023/09/24 12:05:21;;;;;;;1.77;0.73;;;20.90;95.50;;;;;;5091517;28;20039;-53
2023/09/24 12:07:50;;;;;;;1.42;0.60;;;20.70;95.80;;;;;;5091535;28;20054;-52
2023/09/24 12:10:17;;;;;;;3.15;0.80;;;20.70;95.70;;;;;;5091298;28;20027;-52
2023/09/24 12:12:43;;;;;;;2.05;1.00;;;20.80;96.30;;;;;;5091533;28;20025;-52
2023/09/24 12:15:09;;;;;;;2.10;0.70;;;21.10;93.80;;;;;;5091409;28;20036;-53
2023/09/24 12:17:35;;;;;;;2.83;1.33;;;21.30;94.40;;;;;;5091243;28;20036;-53
2023/09/24 12:20:00;;;;;;;5.78;2.90;;;21.50;94.20;;;;;;5091173;28;20499;-49
2023/09/24 12:22:26;;;;;;;5.18;0.95;;;21.40;94.60;;;;;;5092001;28;20032;-54
2023/09/24 12:24:52;;;;;;;2.78;0.95;;;21.30;95.40;;;;;;5091340;28;20316;-53
2023/09/24 12:27:17;;;;;;;2.63;1.10;;;21.20;95.30;;;;;;5073068;28;20032;-53
2023/09/24 12:29:43;;;;;;;3.67;1.40;;;21.20;95.20;;;;;;5090759;28;20028;-50
2023/09/24 12:32:08;;;;;;;4.13;1.52;;;21.20;95.30;;;;;;5091052;28;20143;-54
2023/09/24 12:34:34;;;;;;;2.38;1.10;;;21.20;95.40;;;;;;5091036;28;20028;-52
2023/09/24 12:37:00;;;;;;;2.45;0.80;;;21.20;95.40;;;;;;5091160;28;20036;-49
2023/09/24 12:39:25;;;;;;;1.77;0.73;;;21.30;94.90;;;;;;5072711;28;20032;-49
2023/09/24 12:41:51;;;;;;;1.73;0.70;;;21.10;95.80;;;;;;5090858;28;20464;-53
2023/09/24 12:44:17;;;;;;;3.15;0.85;;;21.10;94.80;;;;;;5090998;28;20439;-53
2023/09/24 12:46:43;;;;;;;3.00;1.30;;;21.00;94.60;;;;;;5090937;28;20369;-51
2023/09/24 12:49:09;;;;;;;3.78;1.00;;;21.00;94.50;;;;;;5090972;28;20039;-53